EmailTwitter


Surface observations / United Kingdom / EGTE (03839)

Regions: Quebec | Canada | USA | Europe | France | UK | Elsewhere
Station
Display
Info & Location for EGTE (03839) | Help decoding METAR

Weather Conditions observed on 2018/10/18 at 17:50 UTC at EXETER AIRPORT, UK (EGTE)

Temperature: 11.0 Celsius.

Dewpoint: 8.0 Celsius.

Relative Humidity: 82%

Winds: Northeast at 7 km/h or 4 knots.

Mean Sea level Pressure: 102.50 kilopascals.

Coded METAR:

EGTE 181750Z 04004KT CAVOK 11/08 Q1025=